Time;durP1;ratioP1;P1;durP2;ratioP2;P2;SDS_P1;SDS_P2;PMS_P1;PMS_P2;Temp;Humidity;BMP_temperature;BMP_pressure;BME280_temperature;BME280_humidity;BME280_pressure;Samples;Min_cycle;Max_cycle;Signal;HPM_P1;HPM_P2
2021/08/27 00:00:22;;;;;;;;;;;;;;;11.83;91.29;97426.37;1698963;84;20234;-77
2021/08/27 00:02:49;;;;;;;;;;;;;;;11.83;91.43;97431.24;1698627;84;20095;-77
2021/08/27 00:05:15;;;;;;;;;;;;;;;11.81;92.40;97432.09;1698638;84;20218;-77
2021/08/27 00:07:41;;;;;;;;;;;;;;;11.85;92.68;97430.38;1704233;83;20198;-77
2021/08/27 00:10:07;;;;;;;;;;;;;;;11.87;91.46;97427.36;1714626;83;20142;-72
2021/08/27 00:12:35;;;;;;;;;;;;;;;11.81;91.01;97426.67;1714587;83;20214;-77
2021/08/27 00:15:01;;;;;;;;;;;;;;;11.83;91.28;97425.81;1714617;83;21191;-74
2021/08/27 00:17:29;;;;;;;;;;;;;;;11.82;90.75;97423.41;1714506;83;20237;-72
2021/08/27 00:19:57;;;;;;;;;;;;;;;11.77;91.03;97422.10;1714571;83;20167;-77
2021/08/27 00:22:23;;;;;;;;;;;;;;;11.72;91.60;97429.81;1714579;83;20159;-77
2021/08/27 00:24:48;;;;;;;;;;;;;;;11.71;92.93;97426.84;1714693;83;20198;-72
2021/08/27 00:27:14;;;;;;;;;;;;;;;11.74;92.14;97430.86;1714695;83;21096;-73
2021/08/27 00:29:40;;;;;;;;;;;;;;;11.70;93.74;97419.78;1714510;83;20181;-77
2021/08/27 00:32:06;;;;;;;;;;;;;;;11.74;93.19;97417.29;1714721;83;20205;-77
2021/08/27 00:34:32;;;;;;;;;;;;;;;11.76;93.41;97415.07;1714630;83;20422;-77
2021/08/27 00:37:00;;;;;;;;;;;;;;;11.75;93.55;97408.84;1714668;83;20174;-77
2021/08/27 00:39:25;;;;;;;;;;;;;;;11.79;92.54;97405.79;1714632;83;21072;-77
2021/08/27 00:41:51;;;;;;;;;;;;;;;11.79;91.43;97411.73;1714598;83;20205;-77
2021/08/27 00:44:17;;;;;;;;;;;;;;;11.72;91.28;97415.44;1714689;83;20229;-72
2021/08/27 00:46:42;;;;;;;;;;;;;;;11.59;91.79;97419.73;1714644;83;20462;-77
2021/08/27 00:49:08;;;;;;;;;;;;;;;11.54;91.81;97419.85;1714697;83;20138;-77
2021/08/27 00:51:34;;;;;;;;;;;;;;;11.51;92.16;97410.94;1714778;83;21008;-73
2021/08/27 00:54:00;;;;;;;;;;;;;;;11.49;92.06;97408.53;1714527;83;20237;-77
2021/08/27 00:56:26;;;;;;;;;;;;;;;11.48;91.85;97419.13;1714684;83;20725;-77
2021/08/27 00:58:52;;;;;;;;;;;;;;;11.45;92.43;97407.53;1714629;83;20156;-77
2021/08/27 01:01:18;;;;;;;;;;;;;;;11.44;92.55;97403.19;1714695;83;20154;-77
2021/08/27 01:03:44;;;;;;;;;;;;;;;11.44;91.96;97415.39;1714748;83;21068;-74
2021/08/27 01:06:35;;;;;;;;;;;;;;;11.43;91.91;97419.21;1714756;83;20274;-72
2021/08/27 01:09:04;;;;;;;;;;;;;;;11.41;91.97;97424.14;1702968;83;20132;-72
2021/08/27 01:11:42;;;;;;;;;;;;;;;11.48;91.71;97425.11;1698757;84;20141;-72
2021/08/27 01:14:12;;;;;;;;;;;;;;;11.43;93.29;97417.86;1698268;84;20145;-77
2021/08/27 01:16:47;;;;;;;;;;;;;;;11.50;93.22;97421.53;1700309;83;21064;-73
2021/08/27 01:19:19;;;;;;;;;;;;;;;11.48;94.45;97410.98;1700169;84;20157;-72
2021/08/27 01:22:20;;;;;;;;;;;;;;;11.48;94.46;97412.34;1675400;84;20139;-78
2021/08/27 01:24:46;;;;;;;;;;;;;;;11.50;93.92;97404.70;1678590;84;20099;-72
2021/08/27 01:27:12;;;;;;;;;;;;;;;11.48;94.21;97407.47;1678719;85;20163;-72
2021/08/27 01:29:57;;;;;;;;;;;;;;;11.47;94.50;97407.23;1678653;84;21091;-77
2021/08/27 01:32:46;;;;;;;;;;;;;;;11.49;93.81;97410.44;1678690;84;20127;-73
2021/08/27 01:35:12;;;;;;;;;;;;;;;11.50;92.97;97407.42;1678868;84;20177;-77
2021/08/27 01:37:38;;;;;;;;;;;;;;;11.52;92.81;97411.98;1678664;84;20177;-74
2021/08/27 01:40:04;;;;;;;;;;;;;;;11.54;93.70;97409.80;1678606;84;20193;-72
2021/08/27 01:42:30;;;;;;;;;;;;;;;11.54;93.15;97417.14;1678655;85;21818;-77
2021/08/27 01:44:56;;;;;;;;;;;;;;;11.52;94.97;97418.77;1678525;84;20701;-73
2021/08/27 01:47:25;;;;;;;;;;;;;;;11.57;94.22;97420.04;1678502;84;20204;-77
2021/08/27 01:49:51;;;;;;;;;;;;;;;11.56;92.75;97427.94;1678602;85;20127;-77
2021/08/27 01:52:18;;;;;;;;;;;;;;;11.45;92.61;97422.45;1678778;84;20216;-73
2021/08/27 01:54:44;;;;;;;;;;;;;;;;;;1664803;85;21846;-78
2021/08/27 01:57:09;;;;;;;;;;;;;;;11.35;94.87;97421.81;1687937;84;20125;-73
2021/08/27 01:59:40;;;;;;;;;;;;;;;11.35;94.67;97426.68;1664605;85;20208;-77
2021/08/27 02:02:07;;;;;;;;;;;;;;;11.37;94.63;97429.12;1678625;84;20170;-73
2021/08/27 02:04:33;;;;;;;;;;;;;;;11.37;94.52;97420.98;1678552;85;20209;-77
2021/08/27 02:07:00;;;;;;;;;;;;;;;11.35;94.72;97425.87;1678478;84;22026;-72
2021/08/27 02:09:25;;;;;;;;;;;;;;;11.37;94.75;97431.83;1689941;84;20406;-77
2021/08/27 02:11:51;;;;;;;;;;;;;;;11.39;93.71;97438.56;1693252;85;20231;-72
2021/08/27 02:14:17;;;;;;;;;;;;;;;11.39;94.88;97439.11;1693104;85;20199;-77
2021/08/27 02:16:43;;;;;;;;;;;;;;;11.36;95.22;97429.64;1693336;85;20481;-72
2021/08/27 02:19:09;;;;;;;;;;;;;;;11.39;95.13;97425.00;1693107;83;21102;-77
2021/08/27 02:21:41;;;;;;;;;;;;;;;11.41;94.83;97431.47;1693257;85;20272;-77
2021/08/27 02:24:11;;;;;;;;;;;;;;;11.45;94.36;97436.02;1679214;85;20130;-77
2021/08/27 02:26:36;;;;;;;;;;;;;;;11.54;94.72;97432.06;1692661;84;20142;-72
2021/08/27 02:29:03;;;;;;;;;;;;;;;11.52;94.96;97430.17;1693212;83;20160;-77
2021/08/27 02:31:29;;;;;;;;;;;;;;;11.51;94.02;97436.16;1693311;85;21160;-74
2021/08/27 02:33:54;;;;;;;;;;;;;;;11.49;94.21;97426.72;1693227;85;20180;-73
2021/08/27 02:36:20;;;;;;;;;;;;;;;11.42;95.04;97431.17;1693208;85;20176;-77
2021/08/27 02:38:46;;;;;;;;;;;;;;;11.38;95.61;97430.73;1693314;85;20148;-77
2021/08/27 02:41:12;;;;;;;;;;;;;;;11.37;94.91;97437.26;1693354;85;20212;-77
2021/08/27 02:43:37;;;;;;;;;;;;;;;11.31;95.15;97432.47;1693267;83;21161;-73
2021/08/27 02:46:03;;;;;;;;;;;;;;;11.29;95.92;97434.13;1693192;85;20168;-77
2021/08/27 02:48:29;;;;;;;;;;;;;;;11.27;94.53;97440.93;1693131;85;20156;-77
2021/08/27 02:51:10;;;;;;;;;;;;;;;11.25;93.77;97436.36;1693436;85;20158;-73
2021/08/27 02:53:52;;;;;;;;;;;;;;;11.25;93.57;97449.92;1670838;84;20430;-73
2021/08/27 02:56:25;;;;;;;;;;;;;;;11.24;93.57;97452.38;1693242;84;20167;-73
2021/08/27 02:58:51;;;;;;;;;;;;;;;11.23;95.69;97452.94;1693307;83;20166;-77
2021/08/27 03:01:24;;;;;;;;;;;;;;;11.29;95.40;97453.11;1693527;85;20193;-78
2021/08/27 03:03:57;;;;;;;;;;;;;;;11.34;95.42;97458.98;1693140;83;20130;-77
2021/08/27 03:06:25;;;;;;;;;;;;;;;11.36;95.09;97460.84;1675853;84;20169;-77
2021/08/27 03:08:55;;;;;;;;;;;;;;;11.38;95.34;97451.07;1691530;85;22026;-77
2021/08/27 03:11:23;;;;;;;;;;;;;;;11.40;96.10;97462.42;1689430;85;20163;-72
2021/08/27 03:13:56;;;;;;;;;;;;;;;11.44;95.19;97462.06;1689505;85;20400;-72
2021/08/27 03:16:21;;;;;;;;;;;;;;;11.44;94.75;97454.73;1689679;85;20128;-72
2021/08/27 03:18:56;;;;;;;;;;;;;;;11.45;94.50;97457.72;1689432;85;20265;-77
2021/08/27 03:21:24;;;;;;;;;;;;;;;11.45;94.54;97454.17;1689560;85;22035;-73
2021/08/27 03:23:50;;;;;;;;;;;;;;;11.47;93.85;97458.77;1689387;85;20277;-72
2021/08/27 03:26:21;;;;;;;;;;;;;;;11.46;93.53;97467.47;1689641;85;20265;-73
2021/08/27 03:28:50;;;;;;;;;;;;;;;11.51;93.14;97468.71;1689351;85;20140;-77
2021/08/27 03:31:16;;;;;;;;;;;;;;;11.51;93.32;97474.14;1689580;85;20175;-74
2021/08/27 03:33:42;;;;;;;;;;;;;;;11.50;93.11;97475.25;1689375;85;21103;-77
2021/08/27 03:36:08;;;;;;;;;;;;;;;11.56;93.45;97472.70;1689688;85;20245;-77
2021/08/27 03:38:33;;;;;;;;;;;;;;;11.63;93.87;97471.52;1689438;85;20178;-77
2021/08/27 03:40:59;;;;;;;;;;;;;;;11.64;93.88;97475.28;1689771;85;20131;-78
2021/08/27 03:43:25;;;;;;;;;;;;;;;11.64;94.53;97471.77;1689586;85;20142;-73
2021/08/27 03:45:51;;;;;;;;;;;;;;;11.67;94.08;97465.73;1689492;85;21221;-77
2021/08/27 03:48:18;;;;;;;;;;;;;;;11.69;94.38;97467.58;1689350;85;20458;-73
2021/08/27 03:50:45;;;;;;;;;;;;;;;11.71;93.30;97470.83;1689578;85;20159;-72
2021/08/27 03:53:11;;;;;;;;;;;;;;;11.74;93.41;97471.57;1689364;85;20127;-77
2021/08/27 03:55:37;;;;;;;;;;;;;;;11.74;93.32;97473.73;1689841;85;20226;-72
2021/08/27 03:58:02;;;;;;;;;;;;;;;11.72;93.27;97468.36;1689437;85;21054;-77
2021/08/27 04:00:28;;;;;;;;;;;;;;;11.71;92.86;97474.89;1689681;85;20169;-73
2021/08/27 04:02:54;;;;;;;;;;;;;;;11.70;93.13;97475.42;1689506;85;20201;-77
2021/08/27 04:05:21;;;;;;;;;;;;;;;11.72;93.20;97475.14;1689684;85;20140;-77
2021/08/27 04:07:47;;;;;;;;;;;;;;;11.76;93.31;97474.78;1689578;85;20411;-73
2021/08/27 04:10:14;;;;;;;;;;;;;;;11.72;94.72;97477.86;1689316;84;21940;-77
2021/08/27 04:12:40;;;;;;;;;;;;;;;11.72;93.54;97480.57;1689476;85;20133;-72
2021/08/27 04:15:08;;;;;;;;;;;;;;;11.67;94.21;97482.02;1689442;85;20296;-73
2021/08/27 04:17:34;;;;;;;;;;;;;;;11.64;94.23;97482.06;1661980;85;20483;-77
2021/08/27 04:19:59;;;;;;;;;;;;;;;11.63;94.52;97478.30;1689464;85;20190;-77
2021/08/27 04:22:25;;;;;;;;;;;;;;;11.62;94.28;97480.73;1689554;85;20625;-77
2021/08/27 04:24:51;;;;;;;;;;;;;;;11.57;95.53;97497.38;1689318;85;20253;-73
2021/08/27 04:27:16;;;;;;;;;;;;;;;11.57;94.56;97497.38;1689554;85;20809;-77
2021/08/27 04:29:42;;;;;;;;;;;;;;;11.60;94.71;97501.39;1689400;85;20162;-73
2021/08/27 04:32:08;;;;;;;;;;;;;;;11.62;95.67;97502.45;1689626;85;20289;-73
2021/08/27 04:34:34;;;;;;;;;;;;;;;11.64;94.97;97500.26;1661875;85;20633;-73
2021/08/27 04:37:00;;;;;;;;;;;;;;;11.66;95.89;97500.76;1689595;85;20158;-72
2021/08/27 04:39:25;;;;;;;;;;;;;;;11.68;95.81;97501.26;1689435;85;20186;-77
2021/08/27 04:41:51;;;;;;;;;;;;;;;11.70;95.57;97502.56;1689684;85;20182;-77
2021/08/27 04:44:17;;;;;;;;;;;;;;;11.70;95.38;97497.12;1689395;85;20170;-77
2021/08/27 04:46:43;;;;;;;;;;;;;;;11.72;96.24;97496.30;1689477;85;21234;-77
2021/08/27 04:49:08;;;;;;;;;;;;;;;11.80;96.03;97490.77;1689246;85;20205;-73
2021/08/27 04:51:34;;;;;;;;;;;;;;;11.85;95.64;97488.74;1689687;85;20162;-72
2021/08/27 04:54:00;;;;;;;;;;;;;;;11.90;96.20;97490.57;1689415;85;20174;-73
2021/08/27 04:56:26;;;;;;;;;;;;;;;11.97;95.29;97489.62;1689619;85;20226;-76
2021/08/27 04:58:52;;;;;;;;;;;;;;;11.99;94.81;97483.33;1689452;85;21087;-77
2021/08/27 05:01:18;;;;;;;;;;;;;;;12.01;94.41;97478.95;1689612;85;20174;-77
2021/08/27 05:03:44;;;;;;;;;;;;;;;11.97;94.78;97476.60;1689391;85;20193;-77
2021/08/27 05:06:09;;;;;;;;;;;;;;;11.98;93.82;97475.49;1689588;85;20146;-77
2021/08/27 05:08:35;;;;;;;;;;;;;;;11.91;93.65;97471.81;1689672;84;20242;-72
2021/08/27 05:11:01;;;;;;;;;;;;;;;11.88;92.99;97479.22;1692559;84;21752;-77
2021/08/27 05:13:27;;;;;;;;;;;;;;;11.83;92.76;97481.45;1692332;85;20119;-73
2021/08/27 05:15:53;;;;;;;;;;;;;;;11.78;92.84;97485.58;1692677;85;20193;-77
2021/08/27 05:18:19;;;;;;;;;;;;;;;11.83;93.04;97494.23;1692425;85;20170;-77
2021/08/27 05:20:44;;;;;;;;;;;;;;;11.93;93.15;97494.03;1692717;85;20230;-77
2021/08/27 05:23:10;;;;;;;;;;;;;;;12.10;93.70;97505.66;1692416;85;21146;-72
2021/08/27 05:25:36;;;;;;;;;;;;;;;12.22;93.50;97500.53;1692644;85;20249;-77
2021/08/27 05:28:02;;;;;;;;;;;;;;;12.25;93.11;97501.84;1692440;85;20233;-73
2021/08/27 05:30:28;;;;;;;;;;;;;;;12.38;93.15;97511.31;1692409;85;20126;-73
2021/08/27 05:32:55;;;;;;;;;;;;;;;12.53;93.05;97505.32;1692571;84;20245;-73
2021/08/27 05:35:21;;;;;;;;;;;;;;;12.64;92.65;97499.91;1692623;85;21079;-73
2021/08/27 05:37:47;;;;;;;;;;;;;;;12.67;91.96;97502.03;1692565;85;20144;-77
2021/08/27 05:40:13;;;;;;;;;;;;;;;12.63;92.01;97506.45;1692569;85;20219;-77
2021/08/27 05:42:39;;;;;;;;;;;;;;;12.66;92.32;97507.22;1692684;85;20166;-73
2021/08/27 05:45:05;;;;;;;;;;;;;;;12.68;92.01;97507.71;1692320;85;20188;-77
2021/08/27 05:47:31;;;;;;;;;;;;;;;12.69;92.26;97510.13;1692608;85;21979;-77
2021/08/27 05:49:58;;;;;;;;;;;;;;;12.78;92.39;97518.36;1692314;85;20299;-77
2021/08/27 05:52:24;;;;;;;;;;;;;;;12.87;92.45;97511.64;1692590;85;20203;-73
2021/08/27 05:54:49;;;;;;;;;;;;;;;12.89;92.14;97510.77;1692394;85;20206;-77
2021/08/27 05:57:15;;;;;;;;;;;;;;;12.93;91.91;97512.58;1692741;85;20174;-74
2021/08/27 05:59:41;;;;;;;;;;;;;;;12.90;91.06;97517.81;1692256;84;21058;-73
2021/08/27 06:02:07;;;;;;;;;;;;;;;12.80;91.21;97512.05;1692590;84;20119;-73
2021/08/27 06:04:33;;;;;;;;;;;;;;;12.74;92.49;97517.38;1692217;85;20264;-77
2021/08/27 06:06:58;;;;;;;;;;;;;;;12.78;91.87;97512.92;1692496;85;20162;-73
2021/08/27 06:09:24;;;;;;;;;;;;;;;12.79;91.45;97516.44;1691398;84;20146;-73
2021/08/27 06:11:50;;;;;;;;;;;;;;;12.79;91.52;97515.89;1689328;85;21925;-77
2021/08/27 06:14:16;;;;;;;;;;;;;;;12.82;91.49;97515.30;1689269;85;20221;-77
2021/08/27 06:16:41;;;;;;;;;;;;;;;12.89;91.62;97519.73;1689598;85;20694;-77
2021/08/27 06:19:07;;;;;;;;;;;;;;;12.94;91.29;97525.63;1689219;85;20604;-73
2021/08/27 06:21:34;;;;;;;;;;;;;;;12.92;91.11;97519.70;1661969;85;20214;-77
2021/08/27 06:23:59;;;;;;;;;;;;;;;12.95;91.67;97528.59;1689382;85;21708;-77
2021/08/27 06:26:25;;;;;;;;;;;;;;;12.97;91.41;97529.88;1689505;85;20162;-73
2021/08/27 06:28:51;;;;;;;;;;;;;;;13.05;91.48;97525.63;1689376;85;20182;-73
2021/08/27 06:31:17;;;;;;;;;;;;;;;13.12;91.62;97526.02;1689583;85;20170;-73
2021/08/27 06:33:42;;;;;;;;;;;;;;;13.12;91.21;97526.02;1689379;85;20534;-77
2021/08/27 06:36:08;;;;;;;;;;;;;;;13.11;90.86;97529.84;1689547;85;20995;-73
2021/08/27 06:38:34;;;;;;;;;;;;;;;13.08;90.88;97533.75;1689401;85;20209;-73
2021/08/27 06:41:02;;;;;;;;;;;;;;;13.04;90.49;97532.19;1689628;85;20162;-77
2021/08/27 06:43:30;;;;;;;;;;;;;;;13.02;91.22;97536.33;1689477;85;20422;-73
2021/08/27 06:45:58;;;;;;;;;;;;;;;13.05;91.53;97531.63;1689689;85;20145;-77
2021/08/27 06:48:24;;;;;;;;;;;;;;;13.08;91.61;97535.11;1689586;85;21277;-73
2021/08/27 06:50:50;;;;;;;;;;;;;;;13.09;91.75;97534.80;1689585;85;20201;-73
2021/08/27 06:53:16;;;;;;;;;;;;;;;13.17;91.63;97537.34;1689554;85;20178;-73
2021/08/27 06:55:42;;;;;;;;;;;;;;;13.22;91.07;97534.52;1689586;85;20178;-73
2021/08/27 06:58:08;;;;;;;;;;;;;;;13.22;90.53;97535.32;1661866;85;20198;-73
2021/08/27 07:00:33;;;;;;;;;;;;;;;13.29;90.83;97536.81;1689683;85;21179;-73
2021/08/27 07:02:59;;;;;;;;;;;;;;;13.40;90.69;97541.69;1689539;85;20170;-73
2021/08/27 07:05:25;;;;;;;;;;;;;;;13.45;90.31;97540.78;1689668;85;20222;-73
2021/08/27 07:07:51;;;;;;;;;;;;;;;13.55;89.99;97537.80;1689439;85;20198;-73
2021/08/27 07:10:17;;;;;;;;;;;;;;;13.56;89.93;97540.77;1689463;84;20238;-73
2021/08/27 07:12:42;;;;;;;;;;;;;;;13.66;89.44;97526.89;1689557;85;21157;-73
2021/08/27 07:15:08;;;;;;;;;;;;;;;13.76;89.29;97530.73;1689168;85;20166;-78
2021/08/27 07:17:34;;;;;;;;;;;;;;;13.89;89.05;97524.95;1689700;85;20175;-73
2021/08/27 07:20:00;;;;;;;;;;;;;;;14.01;89.13;97518.91;1689132;85;20178;-73
2021/08/27 07:22:26;;;;;;;;;;;;;;;14.05;87.90;97519.34;1689536;85;20227;-78
2021/08/27 07:24:52;;;;;;;;;;;;;;;14.05;87.04;97523.42;1689272;85;21027;-73
2021/08/27 07:27:18;;;;;;;;;;;;;;;14.23;87.27;97523.48;1689519;85;20238;-77
2021/08/27 07:29:44;;;;;;;;;;;;;;;14.37;84.42;97524.99;1689449;85;20189;-73
2021/08/27 07:32:12;;;;;;;;;;;;;;;14.55;85.18;97524.51;1689547;85;20170;-77
2021/08/27 07:34:39;;;;;;;;;;;;;;;14.89;86.47;97525.13;1689390;85;20443;-77
2021/08/27 07:37:07;;;;;;;;;;;;;;;15.17;82.65;97526.17;1689708;85;21025;-78
2021/08/27 07:39:33;;;;;;;;;;;;;;;15.13;81.84;97528.76;1689334;85;20202;-78
2021/08/27 07:41:59;;;;;;;;;;;;;;;15.30;82.53;97521.12;1689675;85;20269;-78
2021/08/27 07:44:25;;;;;;;;;;;;;;;15.51;84.52;97523.98;1689343;85;20249;-74
2021/08/27 07:46:50;;;;;;;;;;;;;;;15.50;83.95;97532.74;1689710;85;20249;-77
2021/08/27 07:49:16;;;;;;;;;;;;;;;15.49;84.40;97536.60;1689399;85;21205;-77
2021/08/27 07:51:46;;;;;;;;;;;;;;;15.40;83.46;97535.02;1689699;85;20170;-73
2021/08/27 07:54:10;;;;;;;;;;;;;;;15.35;83.17;97533.80;1688904;85;20400;-73
2021/08/27 07:56:35;;;;;;;;;;;;;;;15.59;82.26;97534.66;1689822;85;20350;-73
2021/08/27 07:59:01;;;;;;;;;;;;;;;15.40;81.28;97539.11;1689516;85;20722;-77
2021/08/27 08:01:27;;;;;;;;;;;;;;;15.46;81.42;97541.33;1689635;85;21971;-73
2021/08/27 08:03:53;;;;;;;;;;;;;;;15.57;80.46;97545.11;1689396;85;20344;-77
2021/08/27 08:06:18;;;;;;;;;;;;;;;15.96;80.99;97539.98;1689661;85;20277;-73
2021/08/27 08:08:44;;;;;;;;;;;;;;;16.36;79.64;97537.75;1689443;85;20174;-73
2021/08/27 08:11:10;;;;;;;;;;;;;;;16.95;79.05;97532.86;1689296;84;20174;-77
2021/08/27 08:13:36;;;;;;;;;;;;;;;17.50;72.42;97533.93;1689536;85;21032;-73
2021/08/27 08:16:02;;;;;;;;;;;;;;;17.80;74.06;97537.39;1689464;85;20217;-74
2021/08/27 08:18:27;;;;;;;;;;;;;;;17.97;76.24;97541.31;1689647;85;20261;-78
2021/08/27 08:20:53;;;;;;;;;;;;;;;18.07;77.25;97543.39;1689605;85;20174;-78
2021/08/27 08:23:21;;;;;;;;;;;;;;;17.74;66.17;97545.58;1689594;85;20303;-78
2021/08/27 08:25:46;;;;;;;;;;;;;;;17.84;70.54;97541.04;1689673;85;21131;-78
2021/08/27 08:28:13;;;;;;;;;;;;;;;17.69;70.93;97539.73;1689358;85;20706;-74
2021/08/27 08:30:40;;;;;;;;;;;;;;;17.52;70.54;97541.27;1689639;85;20147;-78
2021/08/27 08:33:06;;;;;;;;;;;;;;;17.15;67.53;97547.11;1689579;85;20503;-78
2021/08/27 08:35:31;;;;;;;;;;;;;;;17.05;67.17;97543.41;1689325;85;20682;-73
2021/08/27 08:37:57;;;;;;;;;;;;;;;16.97;71.75;97543.70;1689544;85;21891;-77
2021/08/27 08:40:23;;;;;;;;;;;;;;;16.88;72.79;97545.70;1689241;85;20193;-73
2021/08/27 08:42:49;;;;;;;;;;;;;;;16.81;69.48;97542.68;1689255;85;20190;-73
2021/08/27 08:45:14;;;;;;;;;;;;;;;16.64;68.51;97543.55;1689318;85;20146;-78
2021/08/27 08:47:40;;;;;;;;;;;;;;;16.67;70.99;97542.11;1689732;85;20178;-73
2021/08/27 08:50:06;;;;;;;;;;;;;;;16.53;70.79;97540.40;1689320;85;21124;-73
2021/08/27 08:52:31;;;;;;;;;;;;;;;16.29;70.52;97540.98;1689514;85;20199;-78
2021/08/27 08:54:57;;;;;;;;;;;;;;;16.33;72.33;97544.69;1689282;85;20166;-73
2021/08/27 08:57:23;;;;;;;;;;;;;;;16.35;72.76;97547.88;1689684;85;20182;-75
2021/08/27 08:59:51;;;;;;;;;;;;;;;16.24;71.41;97545.86;1689277;85;20206;-73
2021/08/27 09:02:16;;;;;;;;;;;;;;;16.24;72.06;97544.48;1689576;85;22053;-78
2021/08/27 09:04:42;;;;;;;;;;;;;;;16.29;72.93;97544.29;1689241;85;20182;-78
2021/08/27 09:07:08;;;;;;;;;;;;;;;16.36;73.16;97552.22;1689738;85;20257;-74
2021/08/27 09:09:35;;;;;;;;;;;;;;;16.43;73.21;97549.55;1689299;85;20237;-73
2021/08/27 09:12:17;;;;;;;;;;;;;;;16.46;72.34;97551.61;1689385;84;20151;-78
2021/08/27 09:14:43;;;;;;;;;;;;;;;16.57;72.97;97556.94;1687392;85;21949;-73
2021/08/27 09:17:08;;;;;;;;;;;;;;;16.71;73.47;97554.81;1661861;85;20186;-77
2021/08/27 09:19:50;;;;;;;;;;;;;;;16.84;74.20;97554.34;1689508;85;20261;-73
2021/08/27 09:22:16;;;;;;;;;;;;;;;16.91;73.58;97547.19;1689609;85;20404;-74
2021/08/27 09:24:42;;;;;;;;;;;;;;;16.69;73.39;97551.61;1689365;85;20194;-73
2021/08/27 09:27:08;;;;;;;;;;;;;;;16.81;73.90;97554.42;1689488;85;21088;-75
2021/08/27 09:29:38;;;;;;;;;;;;;;;16.69;72.37;97555.72;1689249;85;20144;-77
2021/08/27 09:32:27;;;;;;;;;;;;;;;16.73;72.66;97557.21;1689606;85;20427;-73
2021/08/27 09:35:10;;;;;;;;;;;;;;;16.82;72.75;97560.70;1629074;87;20490;-73
2021/08/27 09:37:40;;;;;;;;;;;;;;;16.61;72.01;97558.70;1679011;85;20168;-78
2021/08/27 09:40:11;;;;;;;;;;;;;;;16.69;72.92;97561.19;1689373;85;21071;-78
2021/08/27 09:42:38;;;;;;;;;;;;;;;16.26;72.79;97565.45;1689246;85;20088;-77
2021/08/27 09:45:04;;;;;;;;;;;;;;;16.12;73.55;97563.48;1689291;85;20168;-73
2021/08/27 09:47:30;;;;;;;;;;;;;;;15.88;74.07;97566.20;1689590;85;20182;-73
2021/08/27 09:49:56;;;;;;;;;;;;;;;16.00;74.45;97558.70;1689391;85;20214;-73
2021/08/27 09:52:22;;;;;;;;;;;;;;;16.10;74.69;97568.48;1689493;85;21308;-74
2021/08/27 09:54:48;;;;;;;;;;;;;;;15.84;72.64;97574.02;1689280;85;20217;-78
2021/08/27 09:57:14;;;;;;;;;;;;;;;15.75;73.97;97572.09;1689509;85;20147;-77
2021/08/27 09:59:50;;;;;;;;;;;;;;;15.61;74.01;97572.03;1689227;85;20194;-73
2021/08/27 10:02:14;;;;;;;;;;;;;;;15.54;74.22;97576.58;1688113;84;20167;-73
2021/08/27 10:04:52;;;;;;;;;;;;;;;15.47;74.29;97572.19;1689371;85;21005;-77
2021/08/27 10:07:31;;;;;;;;;;;;;;;15.40;74.23;97577.33;1689640;85;20140;-73
2021/08/27 10:10:00;;;;;;;;;;;;;;;15.40;75.44;97574.59;1689320;85;20164;-78
2021/08/27 10:12:31;;;;;;;;;;;;;;;15.23;75.38;97576.20;1689331;84;20459;-73
2021/08/27 10:14:58;;;;;;;;;;;;;;;15.21;75.76;97570.80;1688818;85;20143;-73
2021/08/27 10:17:23;;;;;;;;;;;;;;;15.20;76.93;97572.72;1690124;85;21464;-77
2021/08/27 10:19:49;;;;;;;;;;;;;;;14.95;78.18;97575.69;1689175;85;20174;-73
2021/08/27 10:22:15;;;;;;;;;;;;;;;14.85;77.87;97575.97;1689536;85;20182;-78
2021/08/27 10:24:43;;;;;;;;;;;;;;;14.84;78.17;97578.45;1689211;85;20150;-77
2021/08/27 10:27:09;;;;;;;;;;;;;;;14.85;78.98;97576.53;1689521;85;20147;-73
2021/08/27 10:29:36;;;;;;;;;;;;;;;14.83;78.69;97580.14;1689353;85;21131;-77
2021/08/27 10:32:02;;;;;;;;;;;;;;;14.79;78.38;97577.27;1689486;85;20152;-74
2021/08/27 10:34:41;;;;;;;;;;;;;;;14.64;79.15;97574.41;1689238;85;20148;-78
2021/08/27 10:37:07;;;;;;;;;;;;;;;14.65;79.07;97573.28;1689626;85;20072;-73
2021/08/27 10:39:38;;;;;;;;;;;;;;;14.69;79.57;97580.26;1689269;85;20166;-78
2021/08/27 10:42:05;;;;;;;;;;;;;;;14.49;80.86;97583.58;1688400;85;21233;-78
2021/08/27 10:44:44;;;;;;;;;;;;;;;14.46;80.78;97578.20;1690709;83;20152;-83
2021/08/27 10:47:10;;;;;;;;;;;;;;;14.45;81.08;97587.50;1689735;83;20173;-73
2021/08/27 10:49:48;;;;;;;;;;;;;;;14.36;81.75;97581.98;1687608;84;20232;-72
2021/08/27 10:52:29;;;;;;;;;;;;;;;14.34;81.59;97593.73;1687896;84;20196;-72
2021/08/27 10:55:06;;;;;;;;;;;;;;;14.31;81.98;97594.94;1686357;84;21345;-75
2021/08/27 10:57:55;;;;;;;;;;;;;;;14.30;83.88;97594.70;1689054;85;20086;-75
2021/08/27 11:00:31;;;;;;;;;;;;;;;14.28;83.61;97598.30;1688726;85;20441;-80
2021/08/27 11:02:57;;;;;;;;;;;;;;;14.29;84.24;97596.62;1688346;84;20439;-78
2021/08/27 11:05:33;;;;;;;;;;;;;;;14.21;85.69;97591.94;1689196;84;20168;-80
2021/08/27 11:08:03;;;;;;;;;;;;;;;14.24;84.75;97597.30;1688095;84;21199;-81
2021/08/27 11:10:29;;;;;;;;;;;;;;;14.22;84.84;97596.26;1689122;84;20502;-76
2021/08/27 11:12:59;;;;;;;;;;;;;;;14.27;84.58;97596.14;1692012;84;20183;-80
2021/08/27 11:15:30;;;;;;;;;;;;;;;14.22;85.91;97599.55;1692136;83;20429;-76
2021/08/27 11:18:22;;;;;;;;;;;;;;;14.22;85.32;97597.63;1691655;84;20228;-76
2021/08/27 11:20:48;;;;;;;;;;;;;;;14.31;84.60;97601.75;1692523;84;21146;-80
2021/08/27 11:23:14;;;;;;;;;;;;;;;14.31;83.99;97601.75;1692553;84;20130;-79
2021/08/27 11:26:00;;;;;;;;;;;;;;;14.35;83.76;97604.88;1692568;85;20171;-82
2021/08/27 11:28:27;;;;;;;;;;;;;;;14.36;83.35;97602.43;1700810;83;20430;-77
2021/08/27 11:31:07;;;;;;;;;;;;;;;14.32;83.27;97605.52;1711311;83;20162;-77
2021/08/27 11:33:47;;;;;;;;;;;;;;;14.33;83.90;97609.85;1695786;82;21782;-76
2021/08/27 11:36:14;;;;;;;;;;;;;;;14.29;83.86;97610.25;1698446;83;20199;-76
2021/08/27 11:38:40;;;;;;;;;;;;;;;14.27;84.34;97605.67;1721387;82;20136;-77
2021/08/27 11:41:06;;;;;;;;;;;;;;;14.28;84.30;97601.83;1721108;82;20407;-80
2021/08/27 11:43:47;;;;;;;;;;;;;;;14.16;84.04;97601.59;1721332;83;20182;-81
2021/08/27 11:46:18;;;;;;;;;;;;;;;14.17;83.80;97605.92;1697766;82;21178;-80
2021/08/27 11:48:43;;;;;;;;;;;;;;;14.09;85.40;97606.12;1676590;85;20189;-77
2021/08/27 11:54:21;;;;;;;;;;;;;;;14.02;86.93;97608.50;1692305;84;20547;-75
2021/08/27 11:56:49;;;;;;;;;;;;;;;13.99;86.33;97613.20;1692622;84;20142;-76
2021/08/27 11:59:23;;;;;;;;;;;;;;;14.07;85.33;97613.80;1692281;83;21115;-76
2021/08/27 12:01:49;;;;;;;;;;;;;;;14.17;85.04;97620.10;1698569;83;20152;-75
2021/08/27 12:04:30;;;;;;;;;;;;;;;14.19;85.65;97613.80;1721125;83;20193;-76
2021/08/27 12:07:08;;;;;;;;;;;;;;;14.20;85.16;97612.69;1721531;82;20155;-77
2021/08/27 12:09:34;;;;;;;;;;;;;;;14.27;86.88;97620.66;1721169;82;20140;-77
2021/08/27 12:12:00;;;;;;;;;;;;;;;14.33;86.33;97615.86;1719584;82;21094;-75
2021/08/27 12:14:51;;;;;;;;;;;;;;;14.44;86.72;97617.22;1717990;83;20328;-75
2021/08/27 12:17:19;;;;;;;;;;;;;;;14.53;85.55;97618.08;1718276;83;20171;-76
2021/08/27 12:19:46;;;;;;;;;;;;;;;14.60;85.54;97617.05;1717029;83;20136;-77
2021/08/27 12:22:12;;;;;;;;;;;;;;;14.56;86.03;97620.73;1718197;83;20217;-76
2021/08/27 12:24:39;;;;;;;;;;;;;;;14.69;85.41;97617.07;1718048;83;21123;-77
2021/08/27 12:27:05;;;;;;;;;;;;;;;14.77;85.24;97618.22;1717950;83;20187;-77
2021/08/27 12:29:31;;;;;;;;;;;;;;;14.81;85.40;97615.92;1718050;83;20144;-76
2021/08/27 12:31:56;;;;;;;;;;;;;;;14.95;84.92;97619.88;1718209;83;20158;-75
2021/08/27 12:34:22;;;;;;;;;;;;;;;14.94;84.72;97620.44;1718054;83;20670;-77
2021/08/27 12:36:49;;;;;;;;;;;;;;;14.94;84.68;97620.44;1701534;83;20533;-77
2021/08/27 12:39:15;;;;;;;;;;;;;;;15.00;84.60;97617.57;1689358;85;20427;-76
2021/08/27 12:41:41;;;;;;;;;;;;;;;15.04;84.99;97619.36;1689240;85;20273;-77
2021/08/27 12:44:10;;;;;;;;;;;;;;;14.98;83.97;97617.09;1689437;85;20142;-77
2021/08/27 12:46:35;;;;;;;;;;;;;;;14.92;83.68;97615.86;1689286;85;20196;-76
2021/08/27 12:49:14;;;;;;;;;;;;;;;14.98;84.66;97619.82;1689253;85;21812;-77
2021/08/27 12:51:42;;;;;;;;;;;;;;;14.97;84.98;97619.02;1689210;85;20140;-76
2021/08/27 12:54:08;;;;;;;;;;;;;;;14.99;84.28;97611.88;1688469;85;20144;-77